sensor_id;sensor_type;location;lat;lon;timestamp;temperature;humidity
5846;DHT22;2949;50.778;7.094;2023-01-16T00:01:55;5.20;99.90
5846;DHT22;2949;50.778;7.094;2023-01-16T00:04:22;5.30;99.90
5846;DHT22;2949;50.778;7.094;2023-01-16T00:06:48;5.20;99.90
5846;DHT22;2949;50.778;7.094;2023-01-16T00:09:13;5.20;99.90
5846;DHT22;2949;50.778;7.094;2023-01-16T00:11:39;5.20;99.90
5846;DHT22;2949;50.778;7.094;2023-01-16T00:14:04;5.20;99.90
5846;DHT22;2949;50.778;7.094;2023-01-16T00:16:30;5.10;99.90
5846;DHT22;2949;50.778;7.094;2023-01-16T00:18:56;5.00;99.90
5846;DHT22;2949;50.778;7.094;2023-01-16T00:21:23;4.90;99.90
5846;DHT22;2949;50.778;7.094;2023-01-16T00:23:56;4.80;99.90
5846;DHT22;2949;50.778;7.094;2023-01-16T00:26:23;4.80;99.90
5846;DHT22;2949;50.778;7.094;2023-01-16T00:28:49;4.70;99.90
5846;DHT22;2949;50.778;7.094;2023-01-16T00:31:15;4.60;99.90
5846;DHT22;2949;50.778;7.094;2023-01-16T00:33:40;4.60;99.90
5846;DHT22;2949;50.778;7.094;2023-01-16T00:36:08;4.60;99.90
5846;DHT22;2949;50.778;7.094;2023-01-16T00:38:34;4.60;99.90
5846;DHT22;2949;50.778;7.094;2023-01-16T00:41:00;4.50;99.90
5846;DHT22;2949;50.778;7.094;2023-01-16T00:43:25;4.50;99.90
5846;DHT22;2949;50.778;7.094;2023-01-16T00:45:51;4.50;99.90
5846;DHT22;2949;50.778;7.094;2023-01-16T00:48:16;4.40;99.90
5846;DHT22;2949;50.778;7.094;2023-01-16T00:50:42;4.50;99.90
5846;DHT22;2949;50.778;7.094;2023-01-16T00:53:07;4.50;99.90
5846;DHT22;2949;50.778;7.094;2023-01-16T00:55:34;4.60;99.90
5846;DHT22;2949;50.778;7.094;2023-01-16T00:58:00;4.60;99.90
5846;DHT22;2949;50.778;7.094;2023-01-16T01:00:26;4.60;99.90
5846;DHT22;2949;50.778;7.094;2023-01-16T01:02:52;4.70;99.90
5846;DHT22;2949;50.778;7.094;2023-01-16T01:05:17;4.80;99.90
5846;DHT22;2949;50.778;7.094;2023-01-16T01:07:43;5.00;99.90
5846;DHT22;2949;50.778;7.094;2023-01-16T01:10:09;5.10;99.90
5846;DHT22;2949;50.778;7.094;2023-01-16T01:12:35;5.10;99.90
5846;DHT22;2949;50.778;7.094;2023-01-16T01:15:01;5.20;99.90
5846;DHT22;2949;50.778;7.094;2023-01-16T01:17:26;5.20;99.90
5846;DHT22;2949;50.778;7.094;2023-01-16T01:19:52;5.20;99.90
5846;DHT22;2949;50.778;7.094;2023-01-16T01:22:17;5.30;99.90
5846;DHT22;2949;50.778;7.094;2023-01-16T01:24:47;5.30;99.90
5846;DHT22;2949;50.778;7.094;2023-01-16T01:27:13;5.30;99.90
5846;DHT22;2949;50.778;7.094;2023-01-16T01:29:39;5.30;99.90
5846;DHT22;2949;50.778;7.094;2023-01-16T01:32:04;5.20;99.90
5846;DHT22;2949;50.778;7.094;2023-01-16T01:34:31;5.20;99.90
5846;DHT22;2949;50.778;7.094;2023-01-16T01:37:02;5.10;99.90
5846;DHT22;2949;50.778;7.094;2023-01-16T01:39:28;5.10;99.90
5846;DHT22;2949;50.778;7.094;2023-01-16T01:41:54;5.10;99.90
5846;DHT22;2949;50.778;7.094;2023-01-16T01:47:34;5.00;99.90
5846;DHT22;2949;50.778;7.094;2023-01-16T01:50:03;5.00;99.90
5846;DHT22;2949;50.778;7.094;2023-01-16T01:52:29;4.90;99.90
5846;DHT22;2949;50.778;7.094;2023-01-16T01:55:02;4.90;99.90
5846;DHT22;2949;50.778;7.094;2023-01-16T01:57:32;4.90;99.90
5846;DHT22;2949;50.778;7.094;2023-01-16T02:00:20;4.90;99.90
5846;DHT22;2949;50.778;7.094;2023-01-16T02:02:58;4.80;99.90
5846;DHT22;2949;50.778;7.094;2023-01-16T02:05:33;4.80;99.90
5846;DHT22;2949;50.778;7.094;2023-01-16T02:08:01;4.70;99.90
5846;DHT22;2949;50.778;7.094;2023-01-16T02:10:36;4.60;99.90
5846;DHT22;2949;50.778;7.094;2023-01-16T02:13:03;4.50;99.90
5846;DHT22;2949;50.778;7.094;2023-01-16T02:15:29;4.40;99.90
5846;DHT22;2949;50.778;7.094;2023-01-16T02:17:54;4.40;99.90
5846;DHT22;2949;50.778;7.094;2023-01-16T02:20:54;4.50;99.90
5846;DHT22;2949;50.778;7.094;2023-01-16T02:32:10;4.70;99.90
5846;DHT22;2949;50.778;7.094;2023-01-16T02:34:59;4.80;99.90
5846;DHT22;2949;50.778;7.094;2023-01-16T02:46:05;4.90;99.90
5846;DHT22;2949;50.778;7.094;2023-01-16T02:48:53;4.90;99.90
5846;DHT22;2949;50.778;7.094;2023-01-16T02:51:45;4.90;99.90
5846;DHT22;2949;50.778;7.094;2023-01-16T02:57:05;4.60;99.90
5846;DHT22;2949;50.778;7.094;2023-01-16T02:59:31;4.40;99.90
5846;DHT22;2949;50.778;7.094;2023-01-16T03:01:57;4.30;99.90
5846;DHT22;2949;50.778;7.094;2023-01-16T03:04:45;4.30;99.90
5846;DHT22;2949;50.778;7.094;2023-01-16T03:07:25;4.50;99.90
5846;DHT22;2949;50.778;7.094;2023-01-16T03:10:31;4.50;99.90
5846;DHT22;2949;50.778;7.094;2023-01-16T03:13:07;4.50;99.90
5846;DHT22;2949;50.778;7.094;2023-01-16T03:22:05;4.10;99.90
5846;DHT22;2949;50.778;7.094;2023-01-16T03:24:49;4.00;99.90
5846;DHT22;2949;50.778;7.094;2023-01-16T03:27:39;3.90;99.90
5846;DHT22;2949;50.778;7.094;2023-01-16T03:30:24;3.70;99.90
5846;DHT22;2949;50.778;7.094;2023-01-16T03:33:06;3.70;99.90
5846;DHT22;2949;50.778;7.094;2023-01-16T03:35:37;3.60;99.90
5846;DHT22;2949;50.778;7.094;2023-01-16T03:38:09;3.70;99.90
5846;DHT22;2949;50.778;7.094;2023-01-16T03:40:41;3.80;99.90
5846;DHT22;2949;50.778;7.094;2023-01-16T03:46:12;4.10;99.90
5846;DHT22;2949;50.778;7.094;2023-01-16T03:48:49;4.30;99.90
5846;DHT22;2949;50.778;7.094;2023-01-16T03:51:24;4.40;99.90
5846;DHT22;2949;50.778;7.094;2023-01-16T03:54:27;4.50;99.90
5846;DHT22;2949;50.778;7.094;2023-01-16T03:59:23;4.60;99.90
5846;DHT22;2949;50.778;7.094;2023-01-16T04:02:10;4.70;99.90
5846;DHT22;2949;50.778;7.094;2023-01-16T04:04:44;4.70;99.90
5846;DHT22;2949;50.778;7.094;2023-01-16T04:07:20;4.80;99.90
5846;DHT22;2949;50.778;7.094;2023-01-16T04:09:54;4.90;99.90
5846;DHT22;2949;50.778;7.094;2023-01-16T04:12:23;5.00;99.90
5846;DHT22;2949;50.778;7.094;2023-01-16T04:14:55;5.10;99.90
5846;DHT22;2949;50.778;7.094;2023-01-16T04:17:22;5.20;99.90
5846;DHT22;2949;50.778;7.094;2023-01-16T04:19:48;5.20;99.90
5846;DHT22;2949;50.778;7.094;2023-01-16T04:22:23;5.20;99.90
5846;DHT22;2949;50.778;7.094;2023-01-16T04:24:50;5.20;99.90
5846;DHT22;2949;50.778;7.094;2023-01-16T04:27:17;5.20;99.90
5846;DHT22;2949;50.778;7.094;2023-01-16T04:29:43;5.30;99.90
5846;DHT22;2949;50.778;7.094;2023-01-16T04:32:09;5.20;99.90
5846;DHT22;2949;50.778;7.094;2023-01-16T04:34:34;5.10;99.90
5846;DHT22;2949;50.778;7.094;2023-01-16T04:37:00;5.10;99.90
5846;DHT22;2949;50.778;7.094;2023-01-16T04:39:25;5.20;99.90
5846;DHT22;2949;50.778;7.094;2023-01-16T04:41:51;5.20;99.90
5846;DHT22;2949;50.778;7.094;2023-01-16T04:44:17;5.20;99.90
5846;DHT22;2949;50.778;7.094;2023-01-16T04:46:43;5.20;99.90
5846;DHT22;2949;50.778;7.094;2023-01-16T04:49:08;5.20;99.90
5846;DHT22;2949;50.778;7.094;2023-01-16T04:51:35;5.30;99.90
5846;DHT22;2949;50.778;7.094;2023-01-16T04:54:03;5.30;99.90
5846;DHT22;2949;50.778;7.094;2023-01-16T04:56:29;5.30;99.90
5846;DHT22;2949;50.778;7.094;2023-01-16T04:58:54;5.30;99.90
5846;DHT22;2949;50.778;7.094;2023-01-16T05:01:21;5.30;99.90
5846;DHT22;2949;50.778;7.094;2023-01-16T05:03:47;5.20;99.90
5846;DHT22;2949;50.778;7.094;2023-01-16T05:06:12;5.10;99.90
5846;DHT22;2949;50.778;7.094;2023-01-16T05:08:38;5.10;99.90
5846;DHT22;2949;50.778;7.094;2023-01-16T05:11:04;5.20;99.90
5846;DHT22;2949;50.778;7.094;2023-01-16T05:13:29;5.30;99.90
5846;DHT22;2949;50.778;7.094;2023-01-16T05:15:55;5.30;99.90
5846;DHT22;2949;50.778;7.094;2023-01-16T05:18:21;5.20;99.90
5846;DHT22;2949;50.778;7.094;2023-01-16T05:20:46;5.30;99.90
5846;DHT22;2949;50.778;7.094;2023-01-16T05:23:12;5.30;99.90
5846;DHT22;2949;50.778;7.094;2023-01-16T05:25:38;5.40;99.90
5846;DHT22;2949;50.778;7.094;2023-01-16T05:28:04;5.40;99.90
5846;DHT22;2949;50.778;7.094;2023-01-16T05:30:30;5.50;99.90
5846;DHT22;2949;50.778;7.094;2023-01-16T05:32:55;5.50;99.90
5846;DHT22;2949;50.778;7.094;2023-01-16T05:35:21;5.50;99.90
5846;DHT22;2949;50.778;7.094;2023-01-16T05:37:47;5.50;99.90
5846;DHT22;2949;50.778;7.094;2023-01-16T05:40:13;5.40;99.90
5846;DHT22;2949;50.778;7.094;2023-01-16T05:42:41;5.40;99.90
5846;DHT22;2949;50.778;7.094;2023-01-16T05:45:07;5.50;99.90
5846;DHT22;2949;50.778;7.094;2023-01-16T05:47:33;5.50;99.90
5846;DHT22;2949;50.778;7.094;2023-01-16T05:49:58;5.50;99.90
5846;DHT22;2949;50.778;7.094;2023-01-16T05:52:24;5.60;99.90
5846;DHT22;2949;50.778;7.094;2023-01-16T05:54:51;5.50;99.90
5846;DHT22;2949;50.778;7.094;2023-01-16T05:57:17;5.50;99.90
5846;DHT22;2949;50.778;7.094;2023-01-16T05:59:42;5.50;99.90
5846;DHT22;2949;50.778;7.094;2023-01-16T06:02:11;5.60;99.90
5846;DHT22;2949;50.778;7.094;2023-01-16T06:04:37;5.50;99.90
5846;DHT22;2949;50.778;7.094;2023-01-16T06:07:02;5.50;99.90
5846;DHT22;2949;50.778;7.094;2023-01-16T06:09:28;5.50;99.90
5846;DHT22;2949;50.778;7.094;2023-01-16T06:11:53;5.50;99.90
5846;DHT22;2949;50.778;7.094;2023-01-16T06:14:19;5.60;99.90
5846;DHT22;2949;50.778;7.094;2023-01-16T06:16:45;5.50;99.90
5846;DHT22;2949;50.778;7.094;2023-01-16T06:19:10;5.50;99.90
5846;DHT22;2949;50.778;7.094;2023-01-16T06:21:36;5.50;99.90
5846;DHT22;2949;50.778;7.094;2023-01-16T06:24:01;5.50;99.90
5846;DHT22;2949;50.778;7.094;2023-01-16T06:26:27;5.50;99.90
5846;DHT22;2949;50.778;7.094;2023-01-16T06:28:52;5.40;99.90
5846;DHT22;2949;50.778;7.094;2023-01-16T06:31:21;5.40;99.90
5846;DHT22;2949;50.778;7.094;2023-01-16T06:33:47;5.40;99.90
5846;DHT22;2949;50.778;7.094;2023-01-16T06:36:12;5.40;99.90
5846;DHT22;2949;50.778;7.094;2023-01-16T06:38:38;5.50;99.90
5846;DHT22;2949;50.778;7.094;2023-01-16T06:41:04;5.50;99.90
5846;DHT22;2949;50.778;7.094;2023-01-16T06:43:29;5.60;99.90
5846;DHT22;2949;50.778;7.094;2023-01-16T06:45:55;5.50;99.90
5846;DHT22;2949;50.778;7.094;2023-01-16T06:48:21;5.50;99.90
5846;DHT22;2949;50.778;7.094;2023-01-16T06:50:47;5.50;99.90
5846;DHT22;2949;50.778;7.094;2023-01-16T06:53:13;5.50;99.90
5846;DHT22;2949;50.778;7.094;2023-01-16T06:55:39;5.50;99.90
5846;DHT22;2949;50.778;7.094;2023-01-16T06:58:05;5.50;99.90
5846;DHT22;2949;50.778;7.094;2023-01-16T07:00:31;5.50;99.90
5846;DHT22;2949;50.778;7.094;2023-01-16T07:02:57;5.50;99.90
5846;DHT22;2949;50.778;7.094;2023-01-16T07:05:24;5.60;99.90
5846;DHT22;2949;50.778;7.094;2023-01-16T07:07:49;5.50;99.90
5846;DHT22;2949;50.778;7.094;2023-01-16T07:10:15;5.60;99.90
5846;DHT22;2949;50.778;7.094;2023-01-16T07:12:41;5.60;99.90
5846;DHT22;2949;50.778;7.094;2023-01-16T07:15:08;5.70;99.90
5846;DHT22;2949;50.778;7.094;2023-01-16T07:17:52;5.70;99.90
5846;DHT22;2949;50.778;7.094;2023-01-16T07:20:36;5.70;99.90
5846;DHT22;2949;50.778;7.094;2023-01-16T07:23:27;5.70;99.90
5846;DHT22;2949;50.778;7.094;2023-01-16T07:25:56;5.80;99.90
5846;DHT22;2949;50.778;7.094;2023-01-16T07:28:23;5.90;99.90
5846;DHT22;2949;50.778;7.094;2023-01-16T07:30:49;5.90;99.90
5846;DHT22;2949;50.778;7.094;2023-01-16T07:33:15;5.90;99.90
5846;DHT22;2949;50.778;7.094;2023-01-16T07:35:41;6.00;99.90
5846;DHT22;2949;50.778;7.094;2023-01-16T07:38:06;6.00;99.90
5846;DHT22;2949;50.778;7.094;2023-01-16T07:40:32;6.00;99.90
5846;DHT22;2949;50.778;7.094;2023-01-16T07:42:58;6.10;99.90
5846;DHT22;2949;50.778;7.094;2023-01-16T07:45:23;6.10;99.90
5846;DHT22;2949;50.778;7.094;2023-01-16T07:47:49;6.00;99.90
5846;DHT22;2949;50.778;7.094;2023-01-16T07:50:14;5.90;99.90
5846;DHT22;2949;50.778;7.094;2023-01-16T07:52:42;5.70;99.90
5846;DHT22;2949;50.778;7.094;2023-01-16T07:55:08;5.50;99.90
5846;DHT22;2949;50.778;7.094;2023-01-16T07:57:36;5.40;99.90
5846;DHT22;2949;50.778;7.094;2023-01-16T08:00:02;5.30;99.90
5846;DHT22;2949;50.778;7.094;2023-01-16T08:02:28;5.10;99.90
5846;DHT22;2949;50.778;7.094;2023-01-16T08:04:54;5.00;99.90
5846;DHT22;2949;50.778;7.094;2023-01-16T08:07:19;4.90;99.90
5846;DHT22;2949;50.778;7.094;2023-01-16T08:09:45;4.80;99.90
5846;DHT22;2949;50.778;7.094;2023-01-16T08:12:10;4.80;99.90
5846;DHT22;2949;50.778;7.094;2023-01-16T08:14:36;4.80;99.90
5846;DHT22;2949;50.778;7.094;2023-01-16T08:17:01;4.70;99.90
5846;DHT22;2949;50.778;7.094;2023-01-16T08:19:27;4.80;99.90
5846;DHT22;2949;50.778;7.094;2023-01-16T08:21:52;4.80;99.90
5846;DHT22;2949;50.778;7.094;2023-01-16T08:24:18;4.80;99.90
5846;DHT22;2949;50.778;7.094;2023-01-16T08:26:44;4.80;99.90
5846;DHT22;2949;50.778;7.094;2023-01-16T08:29:10;4.80;99.90
5846;DHT22;2949;50.778;7.094;2023-01-16T08:31:35;4.90;99.90
5846;DHT22;2949;50.778;7.094;2023-01-16T08:34:01;4.90;99.90
5846;DHT22;2949;50.778;7.094;2023-01-16T08:36:26;5.00;99.90
5846;DHT22;2949;50.778;7.094;2023-01-16T08:38:52;5.10;99.90
5846;DHT22;2949;50.778;7.094;2023-01-16T08:41:18;5.10;99.90
5846;DHT22;2949;50.778;7.094;2023-01-16T08:44:03;5.10;99.90
5846;DHT22;2949;50.778;7.094;2023-01-16T08:47:00;5.20;99.90
5846;DHT22;2949;50.778;7.094;2023-01-16T08:49:46;5.30;99.90
5846;DHT22;2949;50.778;7.094;2023-01-16T08:52:32;5.30;99.90
5846;DHT22;2949;50.778;7.094;2023-01-16T08:54:59;5.30;99.90
5846;DHT22;2949;50.778;7.094;2023-01-16T08:57:26;5.30;99.90
5846;DHT22;2949;50.778;7.094;2023-01-16T08:59:53;5.40;99.90
5846;DHT22;2949;50.778;7.094;2023-01-16T09:02:19;5.40;99.90
5846;DHT22;2949;50.778;7.094;2023-01-16T09:04:45;5.40;99.90
5846;DHT22;2949;50.778;7.094;2023-01-16T09:07:11;5.40;99.90
5846;DHT22;2949;50.778;7.094;2023-01-16T09:09:36;5.40;99.90
5846;DHT22;2949;50.778;7.094;2023-01-16T09:12:02;5.40;99.90
5846;DHT22;2949;50.778;7.094;2023-01-16T09:14:46;5.40;99.90
5846;DHT22;2949;50.778;7.094;2023-01-16T09:17:12;5.50;99.90
5846;DHT22;2949;50.778;7.094;2023-01-16T09:19:37;5.50;99.90
5846;DHT22;2949;50.778;7.094;2023-01-16T09:22:04;5.40;99.90
5846;DHT22;2949;50.778;7.094;2023-01-16T09:24:33;5.50;99.90
5846;DHT22;2949;50.778;7.094;2023-01-16T09:27:00;5.50;99.90
5846;DHT22;2949;50.778;7.094;2023-01-16T09:29:26;5.50;99.90
5846;DHT22;2949;50.778;7.094;2023-01-16T09:31:52;5.60;99.90
5846;DHT22;2949;50.778;7.094;2023-01-16T09:34:18;5.60;99.90
5846;DHT22;2949;50.778;7.094;2023-01-16T09:36:43;5.60;99.90
5846;DHT22;2949;50.778;7.094;2023-01-16T09:39:09;5.70;99.90
5846;DHT22;2949;50.778;7.094;2023-01-16T09:41:47;5.80;99.90
5846;DHT22;2949;50.778;7.094;2023-01-16T09:44:33;5.90;99.90
5846;DHT22;2949;50.778;7.094;2023-01-16T09:46:59;6.10;99.90
5846;DHT22;2949;50.778;7.094;2023-01-16T09:49:31;6.10;99.90
5846;DHT22;2949;50.778;7.094;2023-01-16T09:52:03;6.20;99.90
5846;DHT22;2949;50.778;7.094;2023-01-16T09:54:56;6.20;99.90
5846;DHT22;2949;50.778;7.094;2023-01-16T09:57:44;6.30;99.90
5846;DHT22;2949;50.778;7.094;2023-01-16T10:00:30;6.30;99.90
5846;DHT22;2949;50.778;7.094;2023-01-16T10:02:57;6.20;99.90
5846;DHT22;2949;50.778;7.094;2023-01-16T10:05:27;6.10;99.90
5846;DHT22;2949;50.778;7.094;2023-01-16T10:08:03;6.10;99.90
5846;DHT22;2949;50.778;7.094;2023-01-16T10:10:48;6.10;99.90
5846;DHT22;2949;50.778;7.094;2023-01-16T10:13:42;6.20;99.90
5846;DHT22;2949;50.778;7.094;2023-01-16T10:16:25;6.10;99.90
5846;DHT22;2949;50.778;7.094;2023-01-16T10:18:58;6.10;99.90
5846;DHT22;2949;50.778;7.094;2023-01-16T10:22:04;6.10;99.90
5846;DHT22;2949;50.778;7.094;2023-01-16T10:24:50;6.10;99.90
5846;DHT22;2949;50.778;7.094;2023-01-16T10:30:17;6.20;99.90
5846;DHT22;2949;50.778;7.094;2023-01-16T10:32:50;6.20;99.90
5846;DHT22;2949;50.778;7.094;2023-01-16T10:35:24;6.20;99.90
5846;DHT22;2949;50.778;7.094;2023-01-16T10:37:51;6.20;99.90
5846;DHT22;2949;50.778;7.094;2023-01-16T10:40:22;6.20;99.90
5846;DHT22;2949;50.778;7.094;2023-01-16T10:42:56;6.10;99.90
5846;DHT22;2949;50.778;7.094;2023-01-16T10:45:42;6.10;99.90
5846;DHT22;2949;50.778;7.094;2023-01-16T10:48:27;6.00;99.90
5846;DHT22;2949;50.778;7.094;2023-01-16T10:51:12;6.00;99.90
5846;DHT22;2949;50.778;7.094;2023-01-16T10:53:38;6.00;99.90
5846;DHT22;2949;50.778;7.094;2023-01-16T10:56:04;6.00;99.90
5846;DHT22;2949;50.778;7.094;2023-01-16T10:58:35;6.10;99.90
5846;DHT22;2949;50.778;7.094;2023-01-16T11:01:02;6.10;99.90
5846;DHT22;2949;50.778;7.094;2023-01-16T11:06:07;6.10;99.90
5846;DHT22;2949;50.778;7.094;2023-01-16T11:08:33;6.10;99.90
5846;DHT22;2949;50.778;7.094;2023-01-16T11:11:00;6.00;99.90
5846;DHT22;2949;50.778;7.094;2023-01-16T11:13:27;6.00;99.90
5846;DHT22;2949;50.778;7.094;2023-01-16T11:19:14;6.20;99.90
5846;DHT22;2949;50.778;7.094;2023-01-16T11:21:42;6.60;99.90
5846;DHT22;2949;50.778;7.094;2023-01-16T11:24:24;6.90;99.90
5846;DHT22;2949;50.778;7.094;2023-01-16T11:26:54;7.20;99.90
5846;DHT22;2949;50.778;7.094;2023-01-16T11:29:23;7.30;99.90
5846;DHT22;2949;50.778;7.094;2023-01-16T11:31:58;7.30;99.90
5846;DHT22;2949;50.778;7.094;2023-01-16T11:34:25;7.30;99.90
5846;DHT22;2949;50.778;7.094;2023-01-16T11:37:01;7.50;99.90
5846;DHT22;2949;50.778;7.094;2023-01-16T11:39:30;7.50;99.90
5846;DHT22;2949;50.778;7.094;2023-01-16T11:41:58;7.50;99.90
5846;DHT22;2949;50.778;7.094;2023-01-16T11:47:17;7.50;99.90
5846;DHT22;2949;50.778;7.094;2023-01-16T11:49:51;7.40;99.90
5846;DHT22;2949;50.778;7.094;2023-01-16T11:52:19;7.30;99.90
5846;DHT22;2949;50.778;7.094;2023-01-16T11:55:03;7.20;99.90
5846;DHT22;2949;50.778;7.094;2023-01-16T11:57:34;7.00;99.90
5846;DHT22;2949;50.778;7.094;2023-01-16T12:00:20;6.90;99.90
5846;DHT22;2949;50.778;7.094;2023-01-16T12:05:54;6.50;99.90
5846;DHT22;2949;50.778;7.094;2023-01-16T12:08:44;6.40;99.90
5846;DHT22;2949;50.778;7.094;2023-01-16T12:11:47;6.30;99.90
5846;DHT22;2949;50.778;7.094;2023-01-16T12:14:30;6.40;99.90
5846;DHT22;2949;50.778;7.094;2023-01-16T12:20:00;6.10;99.90
5846;DHT22;2949;50.778;7.094;2023-01-16T12:25:24;5.90;99.90
5846;DHT22;2949;50.778;7.094;2023-01-16T12:30:41;5.80;99.90
5846;DHT22;2949;50.778;7.094;2023-01-16T12:36:13;6.20;99.90
5846;DHT22;2949;50.778;7.094;2023-01-16T12:38:59;6.40;99.90
5846;DHT22;2949;50.778;7.094;2023-01-16T12:44:47;6.40;99.90
5846;DHT22;2949;50.778;7.094;2023-01-16T12:50:14;6.10;99.90
5846;DHT22;2949;50.778;7.094;2023-01-16T12:52:52;6.00;99.90
5846;DHT22;2949;50.778;7.094;2023-01-16T12:55:34;6.00;99.90
5846;DHT22;2949;50.778;7.094;2023-01-16T12:58:16;6.00;99.90
5846;DHT22;2949;50.778;7.094;2023-01-16T13:00:49;6.10;99.90
5846;DHT22;2949;50.778;7.094;2023-01-16T13:05:44;6.20;99.90
5846;DHT22;2949;50.778;7.094;2023-01-16T13:08:25;6.20;99.90
5846;DHT22;2949;50.778;7.094;2023-01-16T13:10:56;6.20;99.90
5846;DHT22;2949;50.778;7.094;2023-01-16T13:14:01;6.20;99.90
5846;DHT22;2949;50.778;7.094;2023-01-16T13:16:36;6.20;99.90
5846;DHT22;2949;50.778;7.094;2023-01-16T13:19:13;6.20;99.90
5846;DHT22;2949;50.778;7.094;2023-01-16T13:21:51;6.30;99.90
5846;DHT22;2949;50.778;7.094;2023-01-16T13:24:27;6.30;99.90
5846;DHT22;2949;50.778;7.094;2023-01-16T13:27:00;6.30;99.90
5846;DHT22;2949;50.778;7.094;2023-01-16T13:29:46;6.20;99.90
5846;DHT22;2949;50.778;7.094;2023-01-16T13:32:31;6.20;99.90
5846;DHT22;2949;50.778;7.094;2023-01-16T13:35:02;6.10;99.90
5846;DHT22;2949;50.778;7.094;2023-01-16T13:38:01;6.00;99.90
5846;DHT22;2949;50.778;7.094;2023-01-16T13:43:12;5.90;99.90
5846;DHT22;2949;50.778;7.094;2023-01-16T13:46:00;5.90;99.90
5846;DHT22;2949;50.778;7.094;2023-01-16T13:48:31;5.90;99.90
5846;DHT22;2949;50.778;7.094;2023-01-16T13:51:14;5.80;99.90
5846;DHT22;2949;50.778;7.094;2023-01-16T13:53:41;5.80;99.90
5846;DHT22;2949;50.778;7.094;2023-01-16T13:56:12;5.90;99.90
5846;DHT22;2949;50.778;7.094;2023-01-16T13:58:40;6.00;99.90
5846;DHT22;2949;50.778;7.094;2023-01-16T14:01:31;6.00;99.90
5846;DHT22;2949;50.778;7.094;2023-01-16T14:06:48;6.10;99.90
5846;DHT22;2949;50.778;7.094;2023-01-16T14:12:16;6.20;99.90
5846;DHT22;2949;50.778;7.094;2023-01-16T14:17:59;6.30;99.90
5846;DHT22;2949;50.778;7.094;2023-01-16T14:20:42;6.40;99.90
5846;DHT22;2949;50.778;7.094;2023-01-16T14:23:34;6.40;99.90
5846;DHT22;2949;50.778;7.094;2023-01-16T14:26:24;6.40;99.90
5846;DHT22;2949;50.778;7.094;2023-01-16T14:28:54;6.40;99.90
5846;DHT22;2949;50.778;7.094;2023-01-16T14:31:23;6.40;99.90
5846;DHT22;2949;50.778;7.094;2023-01-16T14:33:50;6.40;99.90
5846;DHT22;2949;50.778;7.094;2023-01-16T14:36:18;6.40;99.90
5846;DHT22;2949;50.778;7.094;2023-01-16T14:38:46;6.40;99.90
5846;DHT22;2949;50.778;7.094;2023-01-16T14:41:16;6.30;99.90
5846;DHT22;2949;50.778;7.094;2023-01-16T14:44:11;6.30;99.90
5846;DHT22;2949;50.778;7.094;2023-01-16T14:50:05;6.30;99.90
5846;DHT22;2949;50.778;7.094;2023-01-16T14:52:57;6.20;99.90
5846;DHT22;2949;50.778;7.094;2023-01-16T14:55:52;6.10;99.90
5846;DHT22;2949;50.778;7.094;2023-01-16T15:01:17;6.00;99.90
5846;DHT22;2949;50.778;7.094;2023-01-16T15:04:04;6.00;99.90
5846;DHT22;2949;50.778;7.094;2023-01-16T15:06:35;5.90;99.90
5846;DHT22;2949;50.778;7.094;2023-01-16T15:09:02;5.90;99.90
5846;DHT22;2949;50.778;7.094;2023-01-16T15:11:31;5.90;99.90
5846;DHT22;2949;50.778;7.094;2023-01-16T15:14:15;5.90;99.90
5846;DHT22;2949;50.778;7.094;2023-01-16T15:20:22;5.80;99.90
5846;DHT22;2949;50.778;7.094;2023-01-16T15:28:54;5.70;99.90
5846;DHT22;2949;50.778;7.094;2023-01-16T15:31:34;5.70;99.90
5846;DHT22;2949;50.778;7.094;2023-01-16T15:34:21;5.70;99.90
5846;DHT22;2949;50.778;7.094;2023-01-16T15:36:49;5.70;99.90
5846;DHT22;2949;50.778;7.094;2023-01-16T15:39:30;5.70;99.90
5846;DHT22;2949;50.778;7.094;2023-01-16T15:42:24;5.70;99.90
5846;DHT22;2949;50.778;7.094;2023-01-16T15:50:54;5.60;99.90
5846;DHT22;2949;50.778;7.094;2023-01-16T15:53:22;5.50;99.90
5846;DHT22;2949;50.778;7.094;2023-01-16T15:55:51;5.50;99.90
5846;DHT22;2949;50.778;7.094;2023-01-16T15:58:20;5.50;99.90
5846;DHT22;2949;50.778;7.094;2023-01-16T16:01:04;5.60;99.90
5846;DHT22;2949;50.778;7.094;2023-01-16T16:03:46;5.50;99.90
5846;DHT22;2949;50.778;7.094;2023-01-16T16:06:14;5.50;99.90
5846;DHT22;2949;50.778;7.094;2023-01-16T16:08:46;5.40;99.90
5846;DHT22;2949;50.778;7.094;2023-01-16T16:11:21;5.40;99.90
5846;DHT22;2949;50.778;7.094;2023-01-16T16:14:09;5.30;99.90
5846;DHT22;2949;50.778;7.094;2023-01-16T16:17:04;5.30;99.90
5846;DHT22;2949;50.778;7.094;2023-01-16T16:19:48;5.30;99.90
5846;DHT22;2949;50.778;7.094;2023-01-16T16:22:19;5.30;99.90
5846;DHT22;2949;50.778;7.094;2023-01-16T16:25:10;5.30;99.90
5846;DHT22;2949;50.778;7.094;2023-01-16T16:27:42;5.40;99.90
5846;DHT22;2949;50.778;7.094;2023-01-16T16:30:26;5.30;99.90
5846;DHT22;2949;50.778;7.094;2023-01-16T16:32:53;5.30;99.90
5846;DHT22;2949;50.778;7.094;2023-01-16T16:35:32;5.30;99.90
5846;DHT22;2949;50.778;7.094;2023-01-16T16:38:00;5.30;99.90
5846;DHT22;2949;50.778;7.094;2023-01-16T16:40:26;5.20;99.90
5846;DHT22;2949;50.778;7.094;2023-01-16T16:42:57;5.20;99.90
5846;DHT22;2949;50.778;7.094;2023-01-16T16:45:28;5.20;99.90
5846;DHT22;2949;50.778;7.094;2023-01-16T16:48:26;5.20;99.90
5846;DHT22;2949;50.778;7.094;2023-01-16T16:51:19;5.10;99.90
5846;DHT22;2949;50.778;7.094;2023-01-16T16:53:47;5.10;99.90
5846;DHT22;2949;50.778;7.094;2023-01-16T16:56:18;5.00;99.90
5846;DHT22;2949;50.778;7.094;2023-01-16T16:58:46;4.90;99.90
5846;DHT22;2949;50.778;7.094;2023-01-16T17:01:14;4.90;99.90
5846;DHT22;2949;50.778;7.094;2023-01-16T17:03:40;4.90;99.90
5846;DHT22;2949;50.778;7.094;2023-01-16T17:06:13;4.90;99.90
5846;DHT22;2949;50.778;7.094;2023-01-16T17:08:39;4.90;99.90
5846;DHT22;2949;50.778;7.094;2023-01-16T17:11:04;4.90;99.90
5846;DHT22;2949;50.778;7.094;2023-01-16T17:13:30;4.90;99.90
5846;DHT22;2949;50.778;7.094;2023-01-16T17:15:56;5.00;99.90
5846;DHT22;2949;50.778;7.094;2023-01-16T17:18:23;5.00;99.90
5846;DHT22;2949;50.778;7.094;2023-01-16T17:20:50;5.00;99.90
5846;DHT22;2949;50.778;7.094;2023-01-16T17:23:18;5.00;99.90
5846;DHT22;2949;50.778;7.094;2023-01-16T17:25:44;4.90;99.90
5846;DHT22;2949;50.778;7.094;2023-01-16T17:28:10;4.90;99.90
5846;DHT22;2949;50.778;7.094;2023-01-16T17:30:36;4.80;99.90
5846;DHT22;2949;50.778;7.094;2023-01-16T17:33:11;4.80;99.90
5846;DHT22;2949;50.778;7.094;2023-01-16T17:35:38;4.80;99.90
5846;DHT22;2949;50.778;7.094;2023-01-16T17:38:12;4.80;99.90
5846;DHT22;2949;50.778;7.094;2023-01-16T17:40:39;4.70;99.90
5846;DHT22;2949;50.778;7.094;2023-01-16T17:43:05;4.80;99.90
5846;DHT22;2949;50.778;7.094;2023-01-16T17:45:51;4.80;99.90
5846;DHT22;2949;50.778;7.094;2023-01-16T17:48:18;4.80;99.90
5846;DHT22;2949;50.778;7.094;2023-01-16T17:50:43;4.90;99.90
5846;DHT22;2949;50.778;7.094;2023-01-16T17:53:14;4.90;99.90
5846;DHT22;2949;50.778;7.094;2023-01-16T17:55:40;5.00;99.90
5846;DHT22;2949;50.778;7.094;2023-01-16T17:58:18;5.00;99.90
5846;DHT22;2949;50.778;7.094;2023-01-16T18:00:50;5.00;99.90
5846;DHT22;2949;50.778;7.094;2023-01-16T18:03:16;5.10;99.90
5846;DHT22;2949;50.778;7.094;2023-01-16T18:05:42;5.10;99.90
5846;DHT22;2949;50.778;7.094;2023-01-16T18:08:08;5.10;99.90
5846;DHT22;2949;50.778;7.094;2023-01-16T18:10:34;5.20;99.90
5846;DHT22;2949;50.778;7.094;2023-01-16T18:13:01;5.20;99.90
5846;DHT22;2949;50.778;7.094;2023-01-16T18:15:45;5.20;99.90
5846;DHT22;2949;50.778;7.094;2023-01-16T18:18:45;5.20;99.90
5846;DHT22;2949;50.778;7.094;2023-01-16T18:21:13;5.20;99.90
5846;DHT22;2949;50.778;7.094;2023-01-16T18:23:57;5.20;99.90
5846;DHT22;2949;50.778;7.094;2023-01-16T18:26:23;5.20;99.90
5846;DHT22;2949;50.778;7.094;2023-01-16T18:28:49;5.20;99.90
5846;DHT22;2949;50.778;7.094;2023-01-16T18:31:19;5.10;99.90